Terminal Aerodrome Forecast
Issued by NWS

Home | Current Version | Previous Version | Text Only | Print | Product List | Glossary On
Versions: 1 2 3 4 5 6 7 8 9 10 11 12 13
000
FTAK31 PAJN 281800 AAA
TAFAPG
TAF AMD
PAPG 281800Z 2818/2918 11009G16KT P6SM -RA SCT025 OVC040
      WS020/13025KT
     FM282000 10010G19KT 6SM -RA BR BKN025 OVC035 WS020/15025KT
     FM290300 VRB06KT P6SM -SHRA BKN025 OVC040
     FM290900 24006KT P6SM -SHRA BCFG SCT004 SCT025 OVC040
      AMD LTD TO CLD VIS AND WIND 2906/2915=

USA.gov is the U.S. government's official web portal to all federal, state and local government web resources and services.